Time;durP1;ratioP1;P1;durP2;ratioP2;P2;SDS_P1;SDS_P2;PMS_P1;PMS_P2;Temp;Humidity;BMP_temperature;BMP_pressure;BME280_temperature;BME280_humidity;BME280_pressure;Samples;Min_cycle;Max_cycle;Signal;HPM_P1;HPM_P2
2022/01/10 00:01:28;;;;;;;43.00;19.13;;;;;;;1.15;100.00;100991.66;10460116;28;20060;-55
2022/01/10 00:06:31;;;;;;;51.05;20.35;;;;;;;1.00;100.00;100990.16;10459151;28;20049;-56
2022/01/10 00:11:33;;;;;;;35.08;19.20;;;;;;;1.18;100.00;101001.03;10459682;28;20057;-56
2022/01/10 00:16:36;;;;;;;35.10;17.85;;;;;;;1.10;100.00;101009.75;10460195;28;20049;-55
2022/01/10 00:21:38;;;;;;;38.70;21.08;;;;;;;1.45;100.00;101018.69;10459360;28;20049;-56
2022/01/10 00:26:41;;;;;;;36.65;19.70;;;;;;;1.12;100.00;101014.91;10461741;28;20048;-56
2022/01/10 00:31:43;;;;;;;46.42;24.35;;;;;;;1.28;100.00;101024.13;10459032;28;20444;-57
2022/01/10 00:36:45;;;;;;;43.55;22.15;;;;;;;0.96;100.00;101036.63;10458758;28;20128;-57
2022/01/10 00:41:48;;;;;;;54.60;24.52;;;;;;;1.21;100.00;101034.53;10458520;28;20052;-54
2022/01/10 00:46:50;;;;;;;43.03;23.92;;;;;;;1.16;100.00;101044.06;10458492;28;20059;-56
2022/01/10 00:51:53;;;;;;;44.20;23.42;;;;;;;1.15;100.00;101050.13;10458139;28;20118;-57
2022/01/10 00:56:55;;;;;;;46.00;26.80;;;;;;;0.79;100.00;101066.06;10456360;28;20409;-56
2022/01/10 01:01:57;;;;;;;37.20;21.52;;;;;;;1.13;100.00;101070.78;10457644;28;20424;-56
2022/01/10 01:07:00;;;;;;;50.05;25.60;;;;;;;0.78;100.00;101086.72;10459587;28;20049;-54
2022/01/10 01:17:58;;;;;;;51.22;29.10;;;;;;;0.71;100.00;101099.66;10457116;28;20052;-56
2022/01/10 01:27:54;;;;;;;50.10;28.30;;;;;;;0.22;100.00;101118.22;10457357;28;20045;-55
2022/01/10 01:32:58;;;;;;;54.45;26.02;;;;;;;0.24;100.00;101124.19;10456902;28;20049;-58
2022/01/10 01:38:00;;;;;;;47.72;24.77;;;;;;;0.07;100.00;101141.50;10457145;28;20049;-58
2022/01/10 01:43:03;;;;;;;50.72;28.23;;;;;;;0.15;100.00;101148.31;10458401;28;20041;-55
2022/01/10 01:48:05;;;;;;;70.00;31.85;;;;;;;-0.09;100.00;101151.09;10456742;28;20057;-56
2022/01/10 01:53:08;;;;;;;46.40;25.55;;;;;;;-0.23;100.00;101162.34;10456779;28;20049;-56
2022/01/10 01:58:10;;;;;;;39.30;24.13;;;;;;;-0.29;100.00;101174.38;10456303;28;20049;-52
2022/01/10 02:03:13;;;;;;;50.78;27.33;;;;;;;-0.19;100.00;101173.47;10456155;28;20041;-52
2022/01/10 02:08:15;;;;;;;51.03;29.98;;;;;;;-0.28;100.00;101181.25;10460958;28;20131;-57
2022/01/10 02:13:18;;;;;;;45.33;25.75;;;;;;;-0.24;100.00;101188.91;10463317;28;20060;-55
2022/01/10 02:18:20;;;;;;;67.20;32.92;;;;;;;0.13;100.00;101191.22;10464372;28;20049;-56
2022/01/10 02:23:23;;;;;;;67.13;36.53;;;;;;;-0.04;100.00;101199.09;10465578;28;20064;-53
2022/01/10 02:28:26;;;;;;;48.72;28.23;;;;;;;-0.31;100.00;101205.28;10464140;28;20053;-49
2022/01/10 02:33:30;;;;;;;57.38;31.88;;;;;;;-0.09;100.00;101210.28;10463494;28;20053;-51
2022/01/10 02:38:33;;;;;;;51.42;28.45;;;;;;;-0.34;100.00;101225.03;10463211;28;20378;-53
2022/01/10 02:43:35;;;;;;;44.90;28.17;;;;;;;-0.52;100.00;101229.41;10463030;28;20075;-57
2022/01/10 02:48:38;;;;;;;47.42;29.17;;;;;;;-0.47;100.00;101229.38;10463377;28;20061;-55
2022/01/10 02:53:40;;;;;;;42.85;27.08;;;;;;;-0.72;100.00;101236.31;10462685;28;20053;-56
2022/01/10 02:58:43;;;;;;;50.05;24.83;;;;;;;-0.65;100.00;101248.31;10465901;28;20056;-56
2022/01/10 03:03:45;;;;;;;36.78;23.83;;;;;;;-0.59;100.00;101258.56;10462260;28;20489;-56
2022/01/10 03:08:47;;;;;;;53.13;27.90;;;;;;;-0.76;100.00;101266.34;10462040;28;20049;-57
2022/01/10 03:13:50;;;;;;;42.97;25.40;;;;;;;-0.53;100.00;101271.41;10460707;28;20420;-57
2022/01/10 03:18:52;;;;;;;54.58;27.45;;;;;;;-0.79;100.00;101290.38;10461121;28;20045;-56
2022/01/10 03:23:54;;;;;;;53.08;26.67;;;;;;;-0.82;100.00;101304.94;10461317;28;20507;-55
2022/01/10 03:28:57;;;;;;;54.22;30.02;;;;;;;-1.01;100.00;101309.25;10461507;28;20056;-56
2022/01/10 03:33:59;;;;;;;61.13;33.03;;;;;;;-0.75;100.00;101322.06;10461201;28;20053;-54
2022/01/10 03:39:02;;;;;;;51.45;30.63;;;;;;;-0.94;100.00;101336.69;10460977;28;20048;-53
2022/01/10 03:44:05;;;;;;;68.68;35.40;;;;;;;-0.63;100.00;101337.47;10460634;28;20382;-55
2022/01/10 03:49:08;;;;;;;78.13;36.58;;;;;;;-0.75;100.00;101352.94;10460407;28;20061;-54
2022/01/10 03:54:10;;;;;;;68.88;33.65;;;;;;;-0.81;100.00;101356.38;10460345;28;20053;-56
2022/01/10 03:59:13;;;;;;;54.97;32.80;;;;;;;-0.83;100.00;101370.06;10460294;28;20526;-51
2022/01/10 04:04:17;;;;;;;60.63;32.58;;;;;;;-0.85;100.00;101372.66;10460060;28;20057;-53
2022/01/10 04:09:21;;;;;;;54.50;30.70;;;;;;;-0.48;100.00;101379.44;10459938;28;20403;-53
2022/01/10 04:14:23;;;;;;;58.10;31.20;;;;;;;-0.64;100.00;101384.63;10466549;28;20052;-56
2022/01/10 04:19:26;;;;;;;47.10;28.08;;;;;;;-1.05;100.00;101390.66;10463946;28;20055;-56
2022/01/10 04:24:28;;;;;;;56.15;30.33;;;;;;;-0.93;100.00;101412.91;10459140;28;20049;-52
2022/01/10 04:29:30;;;;;;;47.45;29.73;;;;;;;-0.94;100.00;101412.06;10458069;28;20056;-52
2022/01/10 04:34:33;;;;;;;51.90;29.42;;;;;;;-1.01;100.00;101432.63;10458588;28;20049;-53
2022/01/10 04:39:35;;;;;;;51.08;31.60;;;;;;;-0.78;100.00;101433.47;10458330;28;20049;-53
2022/01/10 04:44:37;;;;;;;80.25;39.85;;;;;;;-0.85;100.00;101448.94;10458425;28;20059;-52
2022/01/10 04:54:54;;;;;;;57.13;34.47;;;;;;;-0.34;100.00;101474.63;10466069;28;20044;-55
2022/01/10 04:59:56;;;;;;;87.38;42.45;;;;;;;-0.64;100.00;101484.06;10457757;28;20378;-54
2022/01/10 05:04:59;;;;;;;81.03;42.42;;;;;;;-0.46;100.00;101491.78;10457900;28;20056;-52
2022/01/10 05:10:01;;;;;;;60.33;36.25;;;;;;;-0.42;100.00;101502.91;10457573;28;20056;-57
2022/01/10 05:15:05;;;;;;;84.50;44.42;;;;;;;-0.07;100.00;101508.03;10457490;28;20049;-52
2022/01/10 05:20:07;;;;;;;84.60;44.53;;;;;;;-0.46;100.00;101522.66;10457717;28;20049;-54
2022/01/10 05:25:10;;;;;;;98.97;47.72;;;;;;;-0.31;100.00;101536.38;10457350;28;20409;-54
2022/01/10 05:30:12;;;;;;;86.90;45.65;;;;;;;-0.32;100.00;101534.66;10465655;28;20048;-56
2022/01/10 05:35:14;;;;;;;83.05;41.78;;;;;;;-0.24;100.00;101544.06;10456878;28;20060;-56
2022/01/10 05:40:19;;;;;;;123.80;54.08;;;;;;;-0.15;100.00;101561.25;10456562;28;20060;-57
2022/01/10 05:45:21;;;;;;;78.40;40.78;;;;;;;-0.10;100.00;101568.94;10456544;28;20049;-54
2022/01/10 05:50:33;;;;;;;50.55;30.23;;;;;;;0.07;100.00;101567.22;10456243;28;20452;-54
2022/01/10 05:55:37;;;;;;;73.32;41.35;;;;;;;0.22;100.00;101576.66;10455417;28;20061;-56
2022/01/10 06:00:40;;;;;;;81.72;41.95;;;;;;;0.12;100.00;101588.69;10456006;28;20511;-52
2022/01/10 06:05:43;;;;;;;73.22;39.53;;;;;;;0.09;100.00;101598.97;10457950;28;20053;-55
2022/01/10 06:10:45;;;;;;;60.88;36.40;;;;;;;0.28;100.00;101598.94;10462004;28;20052;-54
2022/01/10 06:15:47;;;;;;;73.68;42.40;;;;;;;-0.04;100.00;101603.25;10455872;28;20060;-56
2022/01/10 06:20:50;;;;;;;85.25;43.30;;;;;;;0.11;100.00;101622.16;10456063;28;20071;-53
2022/01/10 06:25:52;;;;;;;107.78;51.55;;;;;;;0.17;100.00;101630.72;10455658;28;20052;-55
2022/01/10 06:30:54;;;;;;;72.53;41.05;;;;;;;-0.06;100.00;101645.34;10455653;28;20103;-55
2022/01/10 06:35:57;;;;;;;70.82;38.65;;;;;;;0.39;100.00;101658.16;10455646;28;20045;-54
2022/01/10 06:40:59;;;;;;;71.43;38.55;;;;;;;-0.07;100.00;101671.94;10455275;28;20045;-56
2022/01/10 06:46:01;;;;;;;76.97;41.13;;;;;;;0.15;100.00;101680.50;10462557;28;20477;-57
2022/01/10 06:51:04;;;;;;;64.78;35.90;;;;;;;0.01;100.00;101685.66;10455052;28;20053;-57
2022/01/10 06:56:06;;;;;;;48.45;32.67;;;;;;;0.17;100.00;101702.00;10461046;28;20052;-55
2022/01/10 07:01:09;;;;;;;72.80;41.30;;;;;;;0.24;100.00;101705.44;10462598;28;20049;-56
2022/01/10 07:06:11;;;;;;;67.07;39.92;;;;;;;0.05;100.00;101722.56;10462512;28;20053;-53
2022/01/10 07:11:14;;;;;;;81.55;43.20;;;;;;;0.06;100.00;101743.19;10462005;28;20493;-55
2022/01/10 07:16:17;;;;;;;71.72;40.83;;;;;;;0.08;100.00;101743.19;10461856;28;20060;-51
2022/01/10 07:21:20;;;;;;;61.13;36.25;;;;;;;-0.14;100.00;101752.59;10464345;28;20382;-56
2022/01/10 07:26:22;;;;;;;117.07;53.88;;;;;;;-0.30;100.00;101774.81;10464560;28;20048;-53
2022/01/10 07:31:28;;;;;;;60.58;37.05;;;;;;;-0.08;100.00;101780.94;10461244;28;20041;-49
2022/01/10 07:36:30;;;;;;;53.05;35.10;;;;;;;-0.21;100.00;101809.19;10461191;28;20053;-52
2022/01/10 07:41:32;;;;;;;71.72;41.30;;;;;;;-0.04;100.00;101806.66;10460811;28;20394;-55
2022/01/10 07:46:35;;;;;;;94.05;46.92;;;;;;;0.20;100.00;101823.03;10461483;28;20041;-57
2022/01/10 07:51:37;;;;;;;105.13;49.25;;;;;;;0.01;100.00;101821.28;10460092;28;20136;-52
2022/01/10 07:56:40;;;;;;;72.95;40.78;;;;;;;-0.17;100.00;101829.78;10460494;28;20503;-52
2022/01/10 08:01:44;;;;;;;105.85;50.58;;;;;;;-0.01;100.00;101837.56;10464154;28;20405;-57
2022/01/10 08:06:46;;;;;;;78.38;41.65;;;;;;;-0.05;100.00;101843.59;10460690;28;20049;-53
2022/01/10 08:11:49;;;;;;;124.85;56.08;;;;;;;0.19;100.00;101862.53;10460110;28;20080;-56
2022/01/10 08:16:51;;;;;;;90.55;47.45;;;;;;;0.13;100.00;101860.78;10458433;28;20400;-55
2022/01/10 08:21:55;;;;;;;65.22;37.13;;;;;;;0.05;100.00;101870.22;10459446;28;20071;-50
2022/01/10 08:26:58;;;;;;;84.75;43.58;;;;;;;0.44;100.00;101883.19;10459263;28;20052;-55
2022/01/10 08:32:00;;;;;;;99.18;48.65;;;;;;;0.42;100.00;101902.94;10459024;28;20053;-51
2022/01/10 08:37:03;;;;;;;87.72;47.50;;;;;;;0.48;100.00;101915.84;10458471;28;20053;-58
2022/01/10 08:42:06;;;;;;;102.95;49.70;;;;;;;0.63;100.00;101921.03;10460012;28;20401;-55
2022/01/10 08:47:08;;;;;;;62.80;37.22;;;;;;;1.12;100.00;101927.94;10458840;28;20055;-52
2022/01/10 08:52:11;;;;;;;77.65;43.47;;;;;;;0.59;100.00;101936.47;10456710;28;20501;-54
2022/01/10 08:57:13;;;;;;;81.47;45.30;;;;;;;0.92;100.00;101943.41;10458061;28;20045;-52
2022/01/10 09:02:15;;;;;;;94.78;51.95;;;;;;;1.07;100.00;101963.19;10457882;28;20056;-54
2022/01/10 09:07:18;;;;;;;91.00;47.10;;;;;;;1.18;100.00;101964.06;10457541;28;20462;-54
2022/01/10 09:12:20;;;;;;;59.40;38.13;;;;;;;1.45;100.00;101973.53;10457261;28;20052;-55
2022/01/10 09:17:23;;;;;;;88.78;47.20;;;;;;;1.42;100.00;101978.69;10456910;28;20045;-55
2022/01/10 09:22:25;;;;;;;85.07;44.83;;;;;;;1.60;100.00;101990.72;10457131;28;20049;-53
2022/01/10 09:27:27;;;;;;;80.70;45.90;;;;;;;1.69;100.00;102000.19;10457076;28;20053;-54
2022/01/10 09:32:30;;;;;;;72.13;40.72;;;;;;;1.97;100.00;102013.06;10456906;28;20053;-55
2022/01/10 09:37:33;;;;;;;84.00;46.35;;;;;;;2.37;100.00;102011.22;10456924;28;20066;-56
2022/01/10 09:42:41;;;;;;;75.47;42.70;;;;;;;2.84;100.00;102008.38;10456696;28;20049;-54
2022/01/10 09:47:44;;;;;;;82.65;48.13;;;;;;;3.58;100.00;102020.81;10455116;28;20048;-55
2022/01/10 09:52:49;;;;;;;64.60;41.53;;;;;;;4.92;100.00;102027.06;10455894;28;20057;-56
2022/01/10 09:57:51;;;;;;;61.85;38.28;;;;;;;3.64;100.00;102029.38;10455165;28;20045;-58
2022/01/10 10:02:53;;;;;;;63.45;38.17;;;;;;;4.31;100.00;102039.94;10456267;28;20049;-57
2022/01/10 10:07:56;;;;;;;55.72;36.58;;;;;;;3.89;100.00;102049.88;10456086;28;20102;-53
2022/01/10 10:12:59;;;;;;;57.70;34.78;;;;;;;3.82;100.00;102059.44;10456560;28;20053;-56
2022/01/10 10:18:03;;;;;;;57.67;34.35;;;;;;;4.58;100.00;102067.28;10456050;28;20056;-56
2022/01/10 10:23:05;;;;;;;49.75;32.05;;;;;;;4.87;100.00;102076.44;10455922;28;20072;-57
2022/01/10 10:28:08;;;;;;;45.40;27.42;;;;;;;3.99;100.00;102076.56;10455915;28;20511;-56
2022/01/10 10:33:11;;;;;;;59.08;31.15;;;;;;;4.18;100.00;102085.88;10463648;28;20096;-57
2022/01/10 10:38:14;;;;;;;48.70;30.60;;;;;;;3.89;100.00;102083.56;10463587;28;20059;-57
2022/01/10 10:43:16;;;;;;;51.10;30.00;;;;;;;4.03;100.00;102105.00;10463144;28;20093;-56
2022/01/10 10:48:19;;;;;;;44.17;29.33;;;;;;;3.90;100.00;102109.47;10462943;28;20053;-58
2022/01/10 10:53:27;;;;;;;45.47;30.92;;;;;;;4.15;100.00;102118.75;10463006;28;20097;-51
2022/01/10 10:58:31;;;;;;;43.50;27.75;;;;;;;4.40;100.00;102120.22;10462647;28;20382;-57
2022/01/10 11:03:34;;;;;;;40.63;26.30;;;;;;;4.38;100.00;102127.16;10462027;28;20045;-55
2022/01/10 11:08:39;;;;;;;39.30;27.55;;;;;;;3.86;100.00;102125.06;10462918;28;20107;-53
2022/01/10 11:13:42;;;;;;;51.83;29.42;;;;;;;4.01;100.00;102130.09;10464328;28;20056;-58
2022/01/10 11:18:44;;;;;;;44.40;29.15;;;;;;;5.81;100.00;102129.59;10460811;28;20049;-56
2022/01/10 11:23:48;;;;;;;42.72;25.27;;;;;;;5.01;100.00;102139.41;10461604;28;20425;-59
2022/01/10 11:28:54;;;;;;;43.85;27.63;;;;;;;4.33;100.00;102149.69;10460476;28;20055;-54
2022/01/10 11:33:57;;;;;;;44.78;28.60;;;;;;;4.05;100.00;102159.44;10462102;28;20059;-54
2022/01/10 11:39:10;;;;;;;37.03;26.17;;;;;;;3.88;100.00;102165.63;10459699;28;20048;-57
2022/01/10 11:44:14;;;;;;;47.13;29.48;;;;;;;3.87;100.00;102170.81;10459626;28;20055;-54
2022/01/10 11:49:21;;;;;;;46.50;30.33;;;;;;;4.37;100.00;102186.81;10460692;28;20056;-58
2022/01/10 11:54:30;;;;;;;37.10;27.95;;;;;;;4.16;100.00;102193.06;10462430;28;20053;-56
2022/01/10 11:59:40;;;;;;;45.55;31.17;;;;;;;6.32;100.00;102201.59;10461403;28;20057;-53
2022/01/10 12:04:46;;;;;;;44.85;30.63;;;;;;;5.40;100.00;102209.88;10459002;28;20045;-57
2022/01/10 12:09:49;;;;;;;41.60;28.20;;;;;;;3.68;100.00;102227.06;10460431;28;20045;-55
2022/01/10 12:14:54;;;;;;;39.65;27.23;;;;;;;3.46;100.00;102228.91;10458739;28;20053;-56
2022/01/10 12:20:02;;;;;;;40.35;28.50;;;;;;;3.53;100.00;102222.81;10460021;28;20179;-56
2022/01/10 12:25:08;;;;;;;38.53;26.45;;;;;;;3.29;100.00;102247.97;10459468;28;20045;-58
2022/01/10 12:30:10;;;;;;;40.35;29.23;;;;;;;3.29;100.00;102254.88;10462290;28;20051;-56
2022/01/10 12:35:13;;;;;;;38.50;27.77;;;;;;;3.27;100.00;102247.09;10458092;28;20056;-51
2022/01/10 12:40:15;;;;;;;45.05;28.15;;;;;;;3.11;100.00;102251.50;10459423;28;20045;-56
2022/01/10 12:45:18;;;;;;;45.03;30.40;;;;;;;3.01;100.00;102252.38;10457274;28;20056;-56
2022/01/10 12:50:21;;;;;;;48.25;29.33;;;;;;;2.87;100.00;102261.88;10457587;28;20052;-56
2022/01/10 12:55:24;;;;;;;52.60;32.10;;;;;;;2.68;100.00;102271.41;10458216;28;20401;-56
2022/01/10 13:00:26;;;;;;;39.13;27.75;;;;;;;3.05;100.00;102276.53;10457823;28;20049;-56
2022/01/10 13:05:29;;;;;;;44.60;30.52;;;;;;;2.94;100.00;102281.69;10457342;28;20134;-55
2022/01/10 13:10:34;;;;;;;44.80;29.77;;;;;;;2.88;100.00;102289.50;10460680;28;20055;-56
2022/01/10 13:15:39;;;;;;;42.92;27.17;;;;;;;3.02;100.00;102289.47;10457329;28;20057;-55
2022/01/10 13:20:43;;;;;;;43.55;29.08;;;;;;;2.62;100.00;102295.53;10457232;28;20405;-56
2022/01/10 13:25:45;;;;;;;45.42;27.92;;;;;;;2.38;100.00;102305.00;10456969;28;20041;-56
2022/01/10 13:30:57;;;;;;;42.47;27.58;;;;;;;2.58;100.00;102312.78;10456883;28;20128;-56
2022/01/10 13:35:59;;;;;;;42.53;27.17;;;;;;;2.54;100.00;102315.34;10456981;28;20057;-55
2022/01/10 13:41:09;;;;;;;45.67;27.95;;;;;;;2.54;100.00;102315.34;10456630;28;20547;-56
2022/01/10 13:46:21;;;;;;;49.40;29.50;;;;;;;2.09;100.00;102333.41;10456694;28;20053;-57
2022/01/10 13:51:24;;;;;;;39.70;23.98;;;;;;;2.48;100.00;102339.50;10459291;28;20084;-57
2022/01/10 13:56:31;;;;;;;40.10;25.48;;;;;;;2.72;100.00;102345.53;10456663;28;20147;-54
2022/01/10 14:01:41;;;;;;;38.15;24.73;;;;;;;2.58;100.00;102348.13;10456702;28;20485;-57
2022/01/10 14:06:44;;;;;;;39.10;24.73;;;;;;;2.27;100.00;102352.38;10464749;28;20049;-57
2022/01/10 14:11:46;;;;;;;42.25;25.52;;;;;;;2.20;100.00;102360.13;10464596;28;20063;-56
2022/01/10 14:16:50;;;;;;;39.90;23.73;;;;;;;2.26;100.00;102366.19;10464431;28;20052;-54
2022/01/10 14:21:53;;;;;;;37.88;22.27;;;;;;;2.27;100.00;102384.28;10464233;28;20045;-57
2022/01/10 14:26:56;;;;;;;37.45;21.67;;;;;;;2.13;100.00;102386.78;10466744;28;20047;-57
2022/01/10 14:31:58;;;;;;;45.20;24.25;;;;;;;1.97;100.00;102397.97;10463628;28;20049;-54
2022/01/10 14:37:00;;;;;;;39.88;23.52;;;;;;;1.84;100.00;102405.63;10464070;28;20056;-56
2022/01/10 14:42:03;;;;;;;35.17;21.85;;;;;;;1.79;100.00;102404.75;10463117;28;20411;-55
2022/01/10 14:47:05;;;;;;;38.08;20.42;;;;;;;1.80;100.00;102419.41;10463236;28;20409;-56
2022/01/10 14:52:08;;;;;;;34.83;20.23;;;;;;;1.70;100.00;102433.13;10461205;28;20493;-56
2022/01/10 14:57:10;;;;;;;34.20;19.73;;;;;;;1.42;100.00;102440.69;10462879;28;20374;-52
2022/01/10 15:02:12;;;;;;;36.20;20.02;;;;;;;1.55;100.00;102459.72;10463075;28;20053;-54
2022/01/10 15:07:15;;;;;;;36.80;19.98;;;;;;;1.46;100.00;102462.22;10462646;28;20045;-56
2022/01/10 15:12:17;;;;;;;33.80;19.15;;;;;;;1.27;100.00;102481.84;10463041;28;20053;-55
2022/01/10 15:17:20;;;;;;;33.90;17.77;;;;;;;1.24;100.00;102480.09;10460979;28;20051;-55
2022/01/10 15:22:23;;;;;;;31.67;17.52;;;;;;;1.20;100.00;102493.84;10461895;28;20048;-56
2022/01/10 15:27:25;;;;;;;26.08;16.63;;;;;;;1.14;100.00;102496.34;10460985;28;20124;-53
2022/01/10 15:32:27;;;;;;;29.70;16.50;;;;;;;1.02;100.00;102511.72;10461399;28;20059;-57
2022/01/10 15:37:30;;;;;;;28.98;16.85;;;;;;;1.01;100.00;102513.44;10461164;28;20049;-56
2022/01/10 15:42:32;;;;;;;35.13;17.40;;;;;;;0.70;100.00;102520.84;10461034;28;20041;-57
2022/01/10 15:47:35;;;;;;;35.75;18.00;;;;;;;0.44;100.00;102533.44;10459645;28;20049;-57
2022/01/10 15:52:42;;;;;;;37.33;18.08;;;;;;;0.26;100.00;102540.94;10461164;28;20056;-55
2022/01/10 15:57:44;;;;;;;34.88;17.05;;;;;;;0.23;100.00;102544.31;10459529;28;20049;-56
2022/01/10 16:02:46;;;;;;;24.75;14.10;;;;;;;0.25;100.00;102541.75;10460406;28;20049;-56
2022/01/10 16:07:49;;;;;;;41.03;17.45;;;;;;;-0.13;100.00;102548.13;10459023;28;20049;-56
2022/01/10 16:12:51;;;;;;;31.17;16.35;;;;;;;-0.05;100.00;102551.66;10461217;28;20075;-53
2022/01/10 16:17:54;;;;;;;31.60;17.58;;;;;;;0.06;100.00;102562.13;10458546;28;20049;-58
2022/01/10 16:22:56;;;;;;;35.15;16.80;;;;;;;-0.16;100.00;102584.09;10459499;28;20060;-55
2022/01/10 16:27:59;;;;;;;28.13;14.73;;;;;;;-0.04;100.00;102586.00;10458037;28;20489;-56
2022/01/10 16:33:02;;;;;;;27.23;16.65;;;;;;;-0.02;100.00;102595.50;10459205;28;20056;-53
2022/01/10 16:38:05;;;;;;;27.27;16.05;;;;;;;0.07;100.00;102604.19;10458776;28;20045;-58
2022/01/10 16:43:07;;;;;;;37.33;19.25;;;;;;;-0.01;100.00;102598.94;10458733;28;20056;-56
2022/01/10 16:48:09;;;;;;;34.78;16.50;;;;;;;0.24;100.00;102614.78;10458846;28;20049;-58
2022/01/10 16:53:12;;;;;;;74.53;22.60;;;;;;;0.15;100.00;102616.38;10458152;28;20071;-57
2022/01/10 16:58:14;;;;;;;55.83;19.20;;;;;;;-0.13;100.00;102621.94;10458154;28;20591;-54
2022/01/10 17:03:17;;;;;;;47.33;19.15;;;;;;;-0.16;100.00;102622.72;10458177;28;20057;-57
2022/01/10 17:08:22;;;;;;;83.15;21.27;;;;;;;-0.15;100.00;102637.34;10457666;28;20048;-54
2022/01/10 17:13:24;;;;;;;43.03;18.95;;;;;;;-0.15;100.00;102642.50;10457919;28;20064;-54
2022/01/10 17:18:27;;;;;;;40.83;18.67;;;;;;;-0.24;100.00;102650.03;10457681;28;20056;-55
2022/01/10 17:23:29;;;;;;;32.95;17.35;;;;;;;-0.07;100.00;102663.19;10457244;28;20489;-55
2022/01/10 17:28:31;;;;;;;25.30;14.80;;;;;;;-0.09;100.00;102664.88;10456804;28;20045;-54
2022/01/10 17:33:34;;;;;;;51.72;25.30;;;;;;;-0.42;100.00;102668.59;10457096;28;20053;-52
2022/01/10 17:38:36;;;;;;;28.23;16.27;;;;;;;-0.31;100.00;102676.53;10458844;28;20068;-55
2022/01/10 17:43:39;;;;;;;25.88;15.65;;;;;;;-0.38;100.00;102683.28;10459339;28;20055;-57
2022/01/10 17:48:42;;;;;;;29.98;16.25;;;;;;;-0.29;100.00;102695.44;10456690;28;20045;-54
2022/01/10 17:53:44;;;;;;;24.40;14.77;;;;;;;-0.37;100.00;102708.16;10456597;28;20067;-53
2022/01/10 17:58:47;;;;;;;28.20;15.43;;;;;;;-0.70;100.00;102724.69;10456243;28;20056;-56
2022/01/10 18:03:50;;;;;;;25.35;14.40;;;;;;;-0.73;100.00;102722.03;10456140;28;20060;-55
2022/01/10 18:08:54;;;;;;;21.65;13.43;;;;;;;-0.54;100.00;102736.13;10456266;28;20083;-53
2022/01/10 18:13:56;;;;;;;34.75;18.55;;;;;;;-0.81;100.00;102750.19;10455891;28;20501;-51
2022/01/10 18:18:58;;;;;;;24.27;14.90;;;;;;;-0.62;100.00;102748.88;10460640;28;20045;-57
2022/01/10 18:24:01;;;;;;;32.17;17.75;;;;;;;-0.14;100.00;102751.50;10455925;28;20052;-58
2022/01/10 18:29:03;;;;;;;30.05;18.65;;;;;;;-1.01;100.00;102766.88;10455931;28;20048;-56
2022/01/10 18:34:06;;;;;;;28.67;16.80;;;;;;;-1.03;100.00;102761.69;10455792;28;20048;-52
2022/01/10 18:39:10;;;;;;;36.88;17.33;;;;;;;-1.06;100.00;102779.66;10455766;28;20091;-54
2022/01/10 18:44:12;;;;;;;37.35;18.73;;;;;;;-1.18;100.00;102775.09;10454262;28;20060;-52
2022/01/10 18:49:15;;;;;;;28.60;16.67;;;;;;;-1.04;100.00;102783.13;10457635;28;20055;-54
2022/01/10 18:54:17;;;;;;;32.85;17.55;;;;;;;-0.78;100.00;102793.09;10467972;28;20423;-57
2022/01/10 18:59:19;;;;;;;30.30;16.92;;;;;;;-0.84;100.00;102801.56;10463417;28;20056;-54
2022/01/10 19:04:23;;;;;;;116.90;20.80;;;;;;;-0.66;100.00;102800.22;10463201;28;20081;-52
2022/01/10 19:09:25;;;;;;;136.85;19.77;;;;;;;-0.73;100.00;102818.94;10462985;28;20052;-54
2022/01/10 19:14:28;;;;;;;54.08;17.90;;;;;;;-0.85;100.00;102820.41;10462895;28;20056;-54
2022/01/10 19:19:30;;;;;;;63.28;22.38;;;;;;;-1.14;100.00;102838.59;10462156;28;20500;-53
2022/01/10 19:24:33;;;;;;;231.43;40.47;;;;;;;-0.98;100.00;102849.22;10461696;28;20507;-53
2022/01/10 19:29:35;;;;;;;145.15;31.20;;;;;;;-1.08;100.00;102855.00;10461754;28;20060;-54
2022/01/10 19:34:38;;;;;;;140.65;26.85;;;;;;;-1.17;100.00;102847.94;10471205;28;20065;-56
2022/01/10 19:39:40;;;;;;;76.88;23.60;;;;;;;-1.19;100.00;102858.19;10461597;28;20052;-55
2022/01/10 19:44:43;;;;;;;295.23;46.08;;;;;;;-1.45;100.00;102867.78;10461030;28;20053;-50
2022/01/10 19:49:45;;;;;;;400.95;56.80;;;;;;;-1.55;100.00;102860.69;10460890;28;20056;-54
2022/01/10 19:54:47;;;;;;;76.05;23.70;;;;;;;-1.50;100.00;102862.56;10460794;28;20064;-53
2022/01/10 19:59:50;;;;;;;80.30;29.63;;;;;;;-1.28;100.00;102862.22;10460705;28;20056;-53
2022/01/10 20:04:53;;;;;;;117.30;35.13;;;;;;;-1.75;100.00;102868.75;10460219;28;20049;-54
2022/01/10 20:09:55;;;;;;;98.65;35.47;;;;;;;-1.66;100.00;102877.50;10471326;28;20049;-57
2022/01/10 20:14:57;;;;;;;165.35;50.17;;;;;;;-1.58;100.00;102881.16;10460466;28;20430;-52
2022/01/10 20:20:00;;;;;;;113.70;38.58;;;;;;;-1.44;100.00;102881.53;10459743;28;20059;-51
2022/01/10 20:25:03;;;;;;;65.30;29.55;;;;;;;-1.19;100.00;102885.59;10459656;28;20049;-53
2022/01/10 20:30:06;;;;;;;146.98;41.40;;;;;;;-1.28;100.00;102888.78;10459466;28;20073;-54
2022/01/10 20:35:09;;;;;;;96.38;33.80;;;;;;;-1.32;100.00;102894.69;10459141;28;20056;-51
2022/01/10 20:40:12;;;;;;;70.57;31.05;;;;;;;-1.56;100.00;102897.50;10458949;28;20053;-53
2022/01/10 20:45:15;;;;;;;137.57;29.98;;;;;;;-1.33;100.00;102892.94;10458065;28;20045;-52
2022/01/10 20:50:18;;;;;;;120.40;33.88;;;;;;;-1.73;100.00;102891.88;10470281;28;20049;-56
2022/01/10 20:55:20;;;;;;;82.22;27.17;;;;;;;-1.35;100.00;102898.03;10458387;28;20076;-55
2022/01/10 21:00:23;;;;;;;61.65;24.23;;;;;;;-1.24;100.00;102916.31;10459084;28;20049;-54
2022/01/10 21:05:26;;;;;;;101.70;28.58;;;;;;;-1.35;100.00;102928.00;10457946;28;20478;-55
2022/01/10 21:10:28;;;;;;;46.33;18.63;;;;;;;-1.47;100.00;102932.84;10457901;28;20056;-54
2022/01/10 21:15:32;;;;;;;64.45;24.67;;;;;;;-1.29;100.00;102933.31;10457013;28;20049;-55
2022/01/10 21:20:34;;;;;;;39.45;22.55;;;;;;;-1.10;100.00;102936.38;10457541;28;20048;-52
2022/01/10 21:25:36;;;;;;;137.27;27.38;;;;;;;-1.79;100.00;102937.97;10471358;28;20045;-54
2022/01/10 21:30:39;;;;;;;121.65;28.83;;;;;;;-1.72;100.00;102934.72;10457825;28;20053;-55
2022/01/10 21:35:41;;;;;;;54.30;19.63;;;;;;;-1.90;100.00;102938.53;10455768;28;20045;-52
2022/01/10 21:40:43;;;;;;;33.90;19.55;;;;;;;-1.91;100.00;102936.78;10456985;28;20053;-54
2022/01/10 21:45:46;;;;;;;97.60;23.63;;;;;;;-1.77;100.00;102941.44;10455499;28;20049;-50
2022/01/10 21:50:50;;;;;;;114.68;25.83;;;;;;;-1.88;100.00;102941.16;10456438;28;20053;-51
2022/01/10 21:55:53;;;;;;;58.78;19.38;;;;;;;-1.61;100.00;102938.47;10456768;28;20055;-52
2022/01/10 22:00:55;;;;;;;41.33;20.80;;;;;;;-1.39;100.00;102941.63;10462557;28;20056;-54
2022/01/10 22:05:58;;;;;;;59.83;19.90;;;;;;;-1.27;100.00;102941.06;10463202;28;20148;-53
2022/01/10 22:11:02;;;;;;;55.28;21.73;;;;;;;-1.30;100.00;102931.56;10456532;28;20049;-52
2022/01/10 22:16:04;;;;;;;49.35;23.50;;;;;;;-1.19;100.00;102934.44;10456275;28;20059;-55
2022/01/10 22:21:09;;;;;;;54.17;24.95;;;;;;;-1.19;100.00;102942.16;10454885;28;20052;-56
2022/01/10 22:26:11;;;;;;;44.90;22.33;;;;;;;-1.25;100.00;102936.84;10462441;28;20060;-56
2022/01/10 22:31:13;;;;;;;54.15;24.00;;;;;;;-1.08;100.00;102938.13;10464656;28;20068;-56
2022/01/10 22:36:16;;;;;;;76.32;28.67;;;;;;;-1.27;100.00;102935.94;10463814;28;20049;-54
2022/01/10 22:41:19;;;;;;;48.42;23.73;;;;;;;-1.38;100.00;102936.53;10490247;28;20136;-53
2022/01/10 22:46:22;;;;;;;69.70;26.77;;;;;;;-1.15;100.00;102937.09;10462182;28;20485;-56